createdAt,value
2023-04-22T00:01:06.737Z,6.38
2023-04-22T00:03:30.360Z,6.28
2023-04-22T00:05:54.635Z,7.40
2023-04-22T00:08:18.024Z,7.10
2023-04-22T00:10:41.345Z,7.07
2023-04-22T00:13:04.629Z,7.63
2023-04-22T00:15:28.211Z,8.70
2023-04-22T00:17:53.173Z,9.55
2023-04-22T00:20:16.641Z,8.18
2023-04-22T00:22:39.954Z,11.30
2023-04-22T00:25:03.200Z,10.77
2023-04-22T00:27:27.053Z,12.50
2023-04-22T00:29:50.263Z,10.10
2023-04-22T00:32:13.515Z,11.55
2023-04-22T00:34:38.197Z,11.30
2023-04-22T00:37:02.779Z,10.50
2023-04-22T00:39:26.114Z,11.27
2023-04-22T00:41:50.396Z,11.38
2023-04-22T00:44:14.053Z,10.90
2023-04-22T00:46:39.330Z,11.05
2023-04-22T00:49:04.062Z,11.77
2023-04-22T00:51:28.753Z,11.40
2023-04-22T00:53:52.059Z,11.00
2023-04-22T00:56:15.727Z,13.80
2023-04-22T00:58:39.155Z,11.93
2023-04-22T01:01:02.531Z,13.18
2023-04-22T01:03:30.649Z,14.48
2023-04-22T01:05:54.169Z,13.13
2023-04-22T01:08:18.888Z,12.73
2023-04-22T01:10:43.231Z,12.00
2023-04-22T01:13:06.486Z,12.85
2023-04-22T01:15:29.789Z,12.80
2023-04-22T01:17:55.152Z,11.50
2023-04-22T01:20:19.486Z,12.07
2023-04-22T01:22:45.597Z,11.13
2023-04-22T01:25:11.489Z,11.00
2023-04-22T01:27:34.981Z,10.95
2023-04-22T01:29:58.490Z,10.15
2023-04-22T01:32:22.003Z,10.98
2023-04-22T01:34:45.498Z,10.52
2023-04-22T01:37:09.120Z,11.43
2023-04-22T01:39:32.962Z,12.05
2023-04-22T01:41:58.731Z,10.95
2023-04-22T01:44:21.974Z,13.23
2023-04-22T01:46:47.084Z,14.05
2023-04-22T01:49:10.399Z,13.13
2023-04-22T01:51:37.643Z,14.30
2023-04-22T01:54:03.920Z,14.43
2023-04-22T01:56:27.191Z,15.00
2023-04-22T01:58:52.745Z,15.35
2023-04-22T02:01:16.966Z,15.75
2023-04-22T02:03:41.538Z,15.35
2023-04-22T02:06:05.181Z,15.35
2023-04-22T02:08:28.588Z,14.35
2023-04-22T02:10:51.892Z,14.90
2023-04-22T02:13:15.551Z,15.55
2023-04-22T02:15:40.525Z,15.30
2023-04-22T02:18:03.873Z,15.15
2023-04-22T02:20:30.465Z,15.23
2023-04-22T02:22:53.731Z,16.40
2023-04-22T02:25:17.216Z,15.82
2023-04-22T02:27:41.662Z,15.18
2023-04-22T02:30:06.159Z,14.52
2023-04-22T02:32:31.565Z,17.50
2023-04-22T02:34:56.290Z,17.35
2023-04-22T02:37:20.670Z,15.05
2023-04-22T02:39:44.067Z,15.05
2023-04-22T02:42:08.130Z,15.35
2023-04-22T02:44:31.443Z,14.38
2023-04-22T02:46:55.597Z,13.77
2023-04-22T02:49:20.378Z,13.77
2023-04-22T02:51:44.045Z,13.60
2023-04-22T02:54:07.398Z,13.00
2023-04-22T02:56:31.735Z,12.35
2023-04-22T02:58:55.214Z,13.07
2023-04-22T03:01:18.711Z,12.32
2023-04-22T03:03:43.004Z,13.45
2023-04-22T03:06:11.245Z,11.68
2023-04-22T03:08:34.500Z,11.45
2023-04-22T03:10:57.797Z,11.52
2023-04-22T03:13:21.097Z,11.98
2023-04-22T03:15:44.545Z,11.27
2023-04-22T03:18:07.969Z,11.75
2023-04-22T03:20:31.449Z,10.55
2023-04-22T03:22:56.091Z,10.43
2023-04-22T03:25:21.942Z,9.25
2023-04-22T03:27:53.191Z,9.30
2023-04-22T03:30:16.936Z,8.77
2023-04-22T03:32:40.390Z,10.02
2023-04-22T03:35:17.953Z,9.35
2023-04-22T03:37:44.063Z,9.23
2023-04-22T03:40:13.787Z,9.20
2023-04-22T03:42:37.637Z,7.95
2023-04-22T03:45:01.131Z,7.40
2023-04-22T03:47:29.447Z,7.45
2023-04-22T03:49:59.659Z,7.30
2023-04-22T03:52:23.322Z,7.60
2023-04-22T03:54:53.423Z,8.10
2023-04-22T03:57:18.654Z,8.18
2023-04-22T03:59:42.722Z,7.03
2023-04-22T04:02:08.954Z,8.02
2023-04-22T04:04:32.592Z,7.03
2023-04-22T04:06:57.577Z,6.80
2023-04-22T04:09:20.805Z,6.57
2023-04-22T04:11:44.230Z,7.38
2023-04-22T04:14:09.985Z,7.03
2023-04-22T04:16:42.837Z,7.05
2023-04-22T04:19:12.516Z,7.18
2023-04-22T04:21:38.195Z,6.10
2023-04-22T04:24:03.832Z,6.32
2023-04-22T04:26:30.648Z,6.53
2023-04-22T04:29:03.711Z,6.88
2023-04-22T04:31:29.624Z,11.15
2023-04-22T04:33:57.175Z,7.82
2023-04-22T04:36:20.870Z,7.10
2023-04-22T04:38:44.759Z,7.00
2023-04-22T04:41:09.725Z,6.18
2023-04-22T04:43:33.456Z,7.28
2023-04-22T04:46:08.368Z,5.45
2023-04-22T04:48:36.205Z,6.65
2023-04-22T04:51:04.433Z,5.85
2023-04-22T04:53:30.222Z,6.10
2023-04-22T04:55:53.523Z,6.22
2023-04-22T04:58:19.160Z,6.07
2023-04-22T05:00:44.753Z,5.63
2023-04-22T05:03:08.696Z,6.28
2023-04-22T05:05:33.610Z,5.82
2023-04-22T05:07:57.003Z,5.13
2023-04-22T05:10:21.451Z,5.28
2023-04-22T05:12:46.256Z,5.00
2023-04-22T05:15:13.729Z,4.80
2023-04-22T05:17:37.859Z,4.70
2023-04-22T05:20:01.282Z,4.95
2023-04-22T05:22:26.676Z,5.28
2023-04-22T05:24:50.059Z,4.95
2023-04-22T05:27:14.093Z,5.10
2023-04-22T05:29:37.776Z,5.43
2023-04-22T05:32:02.291Z,4.82
2023-04-22T05:34:26.499Z,4.95
2023-04-22T05:36:51.068Z,5.30
2023-04-22T05:39:15.779Z,5.13
2023-04-22T05:41:39.237Z,4.80
2023-04-22T05:44:05.666Z,4.60
2023-04-22T05:46:29.071Z,5.22
2023-04-22T05:48:52.644Z,5.15
2023-04-22T05:51:35.974Z,4.60
2023-04-22T05:53:59.598Z,4.70
2023-04-22T05:56:24.332Z,4.70
2023-04-22T05:58:48.275Z,5.10
2023-04-22T06:01:14.875Z,4.75
2023-04-22T06:03:57.601Z,5.18
2023-04-22T06:06:22.182Z,4.80
2023-04-22T06:08:45.604Z,4.35
2023-04-22T06:11:09.037Z,4.50
2023-04-22T06:13:34.603Z,4.50
2023-04-22T06:15:58.139Z,3.88
2023-04-22T06:18:22.646Z,4.55
2023-04-22T06:20:46.171Z,4.40
2023-04-22T06:23:09.593Z,4.60
2023-04-22T06:25:33.331Z,4.05
2023-04-22T06:27:56.788Z,4.38
2023-04-22T06:30:21.536Z,4.25
2023-04-22T06:32:44.889Z,4.65
2023-04-22T06:35:09.767Z,4.57
2023-04-22T06:37:33.594Z,4.40
2023-04-22T06:39:57.350Z,4.20
2023-04-22T06:42:46.482Z,4.00
2023-04-22T06:45:31.853Z,4.63
2023-04-22T06:48:19.753Z,4.00
2023-04-22T06:51:03.028Z,4.00
2023-04-22T06:53:26.438Z,4.50
2023-04-22T06:55:50.186Z,4.53
2023-04-22T06:58:13.435Z,4.15
2023-04-22T07:00:39.673Z,4.47
2023-04-22T07:03:03.707Z,4.22
2023-04-22T07:05:27.228Z,4.47
2023-04-22T07:07:51.331Z,4.47
2023-04-22T07:10:20.900Z,4.60
2023-04-22T07:13:08.931Z,4.50
2023-04-22T07:15:33.845Z,4.55
2023-04-22T07:17:58.942Z,4.47
2023-04-22T07:20:22.417Z,4.50
2023-04-22T07:22:45.581Z,3.97
2023-04-22T07:25:11.157Z,4.53
2023-04-22T07:27:36.923Z,4.43
2023-04-22T07:30:00.801Z,4.55
2023-04-22T07:32:24.196Z,4.40
2023-04-22T07:34:48.828Z,4.20
2023-04-22T07:37:12.269Z,4.53
2023-04-22T07:39:35.683Z,4.18
2023-04-22T07:41:59.910Z,4.32
2023-04-22T07:44:23.098Z,4.60
2023-04-22T07:46:48.058Z,4.75
2023-04-22T07:49:13.949Z,4.13
2023-04-22T07:51:38.735Z,3.95
2023-04-22T07:54:02.112Z,4.13
2023-04-22T07:56:25.361Z,4.43
2023-04-22T07:58:49.025Z,3.75
2023-04-22T08:01:12.344Z,4.00
2023-04-22T08:03:38.805Z,4.43
2023-04-22T08:06:02.176Z,4.53
2023-04-22T08:08:27.582Z,4.22
2023-04-22T08:10:50.894Z,3.50
2023-04-22T08:13:15.339Z,3.80
2023-04-22T08:15:40.016Z,3.80
2023-04-22T08:18:03.408Z,3.58
2023-04-22T08:20:27.032Z,3.42
2023-04-22T08:22:51.541Z,3.30
2023-04-22T08:25:16.229Z,3.50
2023-04-22T08:27:39.891Z,2.90
2023-04-22T08:30:04.073Z,3.22
2023-04-22T08:32:27.410Z,3.10
2023-04-22T08:34:52.066Z,3.75
2023-04-22T08:37:17.716Z,2.80
2023-04-22T08:39:41.224Z,3.13
2023-04-22T08:42:06.796Z,2.90
2023-04-22T08:44:30.916Z,2.78
2023-04-22T08:46:55.995Z,2.95
2023-04-22T08:49:20.164Z,2.97
2023-04-22T08:51:44.606Z,3.22
2023-04-22T08:54:07.966Z,3.50
2023-04-22T08:56:32.627Z,2.80
2023-04-22T08:58:57.512Z,3.03
2023-04-22T09:01:21.572Z,3.40
2023-04-22T09:03:45.590Z,3.00
2023-04-22T09:06:12.428Z,3.72
2023-04-22T09:08:35.960Z,3.75
2023-04-22T09:10:59.993Z,3.70
2023-04-22T09:13:28.690Z,2.75
2023-04-22T09:15:53.367Z,3.17
2023-04-22T09:18:19.218Z,2.70
2023-04-22T09:20:44.717Z,3.03
2023-04-22T09:23:08.836Z,2.65
2023-04-22T09:25:35.592Z,2.40
2023-04-22T09:28:01.941Z,2.50
2023-04-22T09:30:28.121Z,2.95
2023-04-22T09:32:57.920Z,2.63
2023-04-22T09:35:28.741Z,3.00
2023-04-22T09:37:54.028Z,2.53
2023-04-22T09:40:19.531Z,2.65
2023-04-22T09:42:51.028Z,2.88
2023-04-22T09:45:14.361Z,3.28
2023-04-22T09:47:37.783Z,4.13
2023-04-22T09:50:06.020Z,5.75
2023-04-22T09:52:29.800Z,2.42
2023-04-22T09:54:55.532Z,2.53
2023-04-22T09:57:19.133Z,37.53
2023-04-22T09:59:42.928Z,3.13
2023-04-22T10:02:07.244Z,2.50
2023-04-22T10:04:31.303Z,5.65
2023-04-22T10:06:57.028Z,2.72
2023-04-22T10:09:22.480Z,2.67
2023-04-22T10:11:45.781Z,3.92
2023-04-22T10:14:10.620Z,2.28
2023-04-22T10:16:36.254Z,3.60
2023-04-22T10:19:04.377Z,3.05
2023-04-22T10:21:29.466Z,3.05
2023-04-22T10:23:54.402Z,2.47
2023-04-22T10:26:43.733Z,2.38
2023-04-22T10:29:07.987Z,2.30
2023-04-22T10:31:32.088Z,2.35
2023-04-22T10:34:13.045Z,2.20
2023-04-22T10:36:36.313Z,2.20
2023-04-22T10:39:19.064Z,2.30
2023-04-22T10:41:42.368Z,3.20
2023-04-22T10:44:08.531Z,2.10
2023-04-22T10:47:02.750Z,2.58
2023-04-22T10:49:27.428Z,2.50
2023-04-22T10:51:53.937Z,2.60
2023-04-22T10:55:01.582Z,2.50
2023-04-22T10:57:33.377Z,2.45
2023-04-22T11:00:00.378Z,2.40
2023-04-22T11:02:24.925Z,2.63
2023-04-22T11:04:50.507Z,2.97
2023-04-22T11:07:20.376Z,2.97
2023-04-22T11:09:46.497Z,2.58
2023-04-22T11:12:45.441Z,2.72
2023-04-22T11:15:11.976Z,2.55
2023-04-22T11:17:35.881Z,2.38
2023-04-22T11:19:59.753Z,2.72
2023-04-22T11:22:24.770Z,3.17
2023-04-22T11:24:56.249Z,2.42
2023-04-22T11:27:26.120Z,2.83
2023-04-22T11:30:02.887Z,2.40
2023-04-22T11:32:26.273Z,2.40
2023-04-22T11:34:53.210Z,2.70
2023-04-22T11:37:20.899Z,2.70
2023-04-22T11:39:59.772Z,2.50
2023-04-22T11:42:27.867Z,2.58
2023-04-22T11:44:52.502Z,2.47
2023-04-22T11:47:17.228Z,2.50
2023-04-22T11:49:40.573Z,2.72
2023-04-22T11:52:05.984Z,2.40
2023-04-22T11:54:37.000Z,2.58
2023-04-22T11:57:04.223Z,2.63
2023-04-22T11:59:28.572Z,2.55
2023-04-22T12:01:53.233Z,2.40
2023-04-22T12:04:18.051Z,2.63
2023-04-22T12:06:42.428Z,2.90
2023-04-22T12:09:05.840Z,2.95
2023-04-22T12:11:29.743Z,2.65
2023-04-22T12:13:54.279Z,2.30
2023-04-22T12:16:20.508Z,2.65
2023-04-22T12:18:50.656Z,2.78
2023-04-22T12:21:18.980Z,2.90
2023-04-22T12:23:47.741Z,2.80
2023-04-22T12:26:11.191Z,2.80
2023-04-22T12:28:34.473Z,2.95
2023-04-22T12:30:57.842Z,2.45
2023-04-22T12:33:21.132Z,2.58
2023-04-22T12:35:47.043Z,2.55
2023-04-22T12:38:11.688Z,2.65
2023-04-22T12:40:35.309Z,2.67
2023-04-22T12:42:58.641Z,3.00
2023-04-22T12:45:22.904Z,5.57
2023-04-22T12:47:47.094Z,3.30
2023-04-22T12:50:10.835Z,2.92
2023-04-22T12:52:36.004Z,3.00
2023-04-22T12:55:00.815Z,3.17
2023-04-22T12:57:24.310Z,2.97
2023-04-22T12:59:47.608Z,3.08
2023-04-22T13:02:11.079Z,3.17
2023-04-22T13:04:34.440Z,3.40
2023-04-22T13:06:57.814Z,3.45
2023-04-22T13:09:21.899Z,3.15
2023-04-22T13:11:49.185Z,3.08
2023-04-22T13:14:12.454Z,3.00
2023-04-22T13:16:35.836Z,2.90
2023-04-22T13:18:59.268Z,2.72
2023-04-22T13:21:22.494Z,3.53
2023-04-22T13:23:45.766Z,3.05
2023-04-22T13:26:09.043Z,3.10
2023-04-22T13:28:33.824Z,3.25
2023-04-22T13:30:57.502Z,3.15
2023-04-22T13:33:22.022Z,3.25
2023-04-22T13:35:45.330Z,2.70
2023-04-22T13:38:08.976Z,3.00
2023-04-22T13:40:32.287Z,2.20
2023-04-22T13:45:45.397Z,2.42
2023-04-22T13:48:08.727Z,1.98
2023-04-22T13:50:32.096Z,1.60
2023-04-22T13:52:55.374Z,2.92
2023-04-22T13:55:18.922Z,1.30
2023-04-22T13:57:42.373Z,1.67
2023-04-22T14:00:07.119Z,1.65
2023-04-22T14:02:36.519Z,1.58
2023-04-22T14:05:00.332Z,1.92
2023-04-22T14:07:23.614Z,1.80
2023-04-22T14:09:46.949Z,1.85
2023-04-22T14:12:12.491Z,1.90
2023-04-22T14:14:35.806Z,2.30
2023-04-22T14:17:00.127Z,2.00
2023-04-22T14:19:25.049Z,2.45
2023-04-22T14:21:48.562Z,2.13
2023-04-22T14:24:12.949Z,2.30
2023-04-22T14:26:36.297Z,3.00
2023-04-22T14:29:00.019Z,2.78
2023-04-22T14:31:24.217Z,2.53
2023-04-22T14:33:47.516Z,2.40
2023-04-22T14:36:12.187Z,2.40
2023-04-22T14:38:35.545Z,2.80
2023-04-22T14:40:58.992Z,2.95
2023-04-22T14:43:22.443Z,3.60
2023-04-22T14:45:46.978Z,2.88
2023-04-22T14:48:10.332Z,2.97
2023-04-22T14:50:34.347Z,3.20
2023-04-22T14:52:59.023Z,2.80
2023-04-22T14:55:24.032Z,2.92
2023-04-22T14:57:47.604Z,2.92
2023-04-22T15:00:12.615Z,3.13
2023-04-22T15:02:36.326Z,3.83
2023-04-22T15:04:59.792Z,3.40
2023-04-22T15:07:23.841Z,3.55
2023-04-22T15:09:48.475Z,3.50
2023-04-22T15:12:11.811Z,3.25
2023-04-22T15:14:37.819Z,3.40
2023-04-22T15:17:01.547Z,3.35
2023-04-22T15:19:24.896Z,2.85
2023-04-22T15:21:48.819Z,2.95
2023-04-22T15:24:13.330Z,3.10
2023-04-22T15:26:39.647Z,3.10
2023-04-22T15:29:04.982Z,3.33
2023-04-22T15:31:28.385Z,2.97
2023-04-22T15:33:52.004Z,3.10
2023-04-22T15:36:18.816Z,2.85
2023-04-22T15:38:42.060Z,2.58
2023-04-22T15:41:05.443Z,2.88
2023-04-22T15:43:30.716Z,2.47
2023-04-22T15:45:54.002Z,2.30
2023-04-22T15:48:17.253Z,2.30
2023-04-22T15:50:41.109Z,2.20
2023-04-22T15:53:04.374Z,2.17
2023-04-22T15:55:27.817Z,2.35
2023-04-22T15:57:51.049Z,2.50
2023-04-22T16:00:16.779Z,3.10
2023-04-22T16:02:40.635Z,3.15
2023-04-22T16:05:05.113Z,2.97
2023-04-22T16:07:28.421Z,2.80
2023-04-22T16:09:51.754Z,2.60
2023-04-22T16:12:15.204Z,2.72
2023-04-22T16:14:38.447Z,3.05
2023-04-22T16:17:05.844Z,3.13
2023-04-22T16:19:29.304Z,3.22
2023-04-22T16:21:54.007Z,3.53
2023-04-22T16:24:17.354Z,4.55
2023-04-22T16:26:40.633Z,8.15
2023-04-22T16:29:04.226Z,3.58
2023-04-22T16:31:27.872Z,3.40
2023-04-22T16:33:52.980Z,2.95
2023-04-22T16:36:16.642Z,3.17
2023-04-22T16:38:40.058Z,3.20
2023-04-22T16:41:03.855Z,3.72
2023-04-22T16:43:27.257Z,7.47
2023-04-22T16:45:50.701Z,3.67
2023-04-22T16:48:13.982Z,3.10
2023-04-22T16:50:39.953Z,3.40
2023-04-22T16:53:03.749Z,2.75
2023-04-22T16:55:27.018Z,3.45
2023-04-22T16:57:50.775Z,3.53
2023-04-22T17:00:15.664Z,3.03
2023-04-22T17:02:38.981Z,2.75
2023-04-22T17:05:03.172Z,2.70
2023-04-22T17:07:27.934Z,2.38
2023-04-22T17:09:51.245Z,2.60
2023-04-22T17:12:14.376Z,2.78
2023-04-22T17:14:37.717Z,2.63
2023-04-22T17:17:00.939Z,2.63
2023-04-22T17:19:24.868Z,2.72
2023-04-22T17:21:48.153Z,2.67
2023-04-22T17:24:12.765Z,2.67
2023-04-22T17:26:37.061Z,2.90
2023-04-22T17:29:01.829Z,2.80
2023-04-22T17:31:25.281Z,2.72
2023-04-22T17:33:49.066Z,3.00
2023-04-22T17:36:12.368Z,3.25
2023-04-22T17:38:35.728Z,3.35
2023-04-22T17:41:00.509Z,2.72
2023-04-22T17:43:23.886Z,3.35
2023-04-22T17:45:47.098Z,3.08
2023-04-22T17:48:10.502Z,3.28
2023-04-22T17:50:34.289Z,3.10
2023-04-22T17:52:58.005Z,2.78
2023-04-22T17:55:22.829Z,2.92
2023-04-22T17:57:51.365Z,3.05
2023-04-22T18:00:16.954Z,3.30
2023-04-22T18:02:40.372Z,3.28
2023-04-22T18:05:04.985Z,2.88
2023-04-22T18:07:28.277Z,3.03
2023-04-22T18:09:51.654Z,3.30
2023-04-22T18:12:14.940Z,3.15
2023-04-22T18:14:39.623Z,3.75
2023-04-22T18:17:03.506Z,3.30
2023-04-22T18:19:27.070Z,3.25
2023-04-22T18:21:59.687Z,3.90
2023-04-22T18:24:27.034Z,3.75
2023-04-22T18:26:50.464Z,3.15
2023-04-22T18:29:13.865Z,3.60
2023-04-22T18:31:38.555Z,3.17
2023-04-22T18:34:02.323Z,2.97
2023-04-22T18:36:25.597Z,3.30
2023-04-22T18:38:48.907Z,3.67
2023-04-22T18:41:13.584Z,3.45
2023-04-22T18:43:36.915Z,4.00
2023-04-22T18:46:00.715Z,3.97
2023-04-22T18:48:25.715Z,5.00
2023-04-22T18:50:49.026Z,4.65
2023-04-22T18:53:12.489Z,5.07
2023-04-22T18:55:35.811Z,5.00
2023-04-22T18:57:59.330Z,5.10
2023-04-22T19:00:23.120Z,5.70
2023-04-22T19:02:46.856Z,5.88
2023-04-22T19:05:13.511Z,5.72
2023-04-22T19:07:37.293Z,6.10
2023-04-22T19:10:00.508Z,6.90
2023-04-22T19:12:23.859Z,6.88
2023-04-22T19:14:48.175Z,7.55
2023-04-22T19:17:11.603Z,8.75
2023-04-22T19:19:34.917Z,8.60
2023-04-22T19:21:59.565Z,8.70
2023-04-22T19:24:22.932Z,9.93
2023-04-22T19:26:47.234Z,9.93
2023-04-22T19:29:11.911Z,9.57
2023-04-22T19:31:35.307Z,9.95
2023-04-22T19:33:59.239Z,10.70
2023-04-22T19:36:22.583Z,10.93
2023-04-22T19:38:47.291Z,11.50
2023-04-22T19:41:37.918Z,12.30
2023-04-22T19:44:01.863Z,12.13
2023-04-22T19:46:25.237Z,14.30
2023-04-22T19:48:49.721Z,14.20
2023-04-22T19:51:13.222Z,15.30
2023-04-22T19:53:36.796Z,16.17
2023-04-22T19:56:02.264Z,16.75
2023-04-22T19:58:25.833Z,15.98
2023-04-22T20:00:49.854Z,15.18
2023-04-22T20:03:14.623Z,17.27
2023-04-22T20:05:38.584Z,16.23
2023-04-22T20:08:03.122Z,17.17
2023-04-22T20:10:27.279Z,15.05
2023-04-22T20:12:52.225Z,16.67
2023-04-22T20:15:16.253Z,15.35
2023-04-22T20:17:40.569Z,15.32
2023-04-22T20:20:07.317Z,16.40
2023-04-22T20:22:30.777Z,16.20
2023-04-22T20:25:06.906Z,16.67
2023-04-22T20:27:31.139Z,16.42
2023-04-22T20:29:55.922Z,21.38
2023-04-22T20:32:19.401Z,24.83
2023-04-22T20:34:43.286Z,26.02
2023-04-22T20:37:10.284Z,26.98
2023-04-22T20:39:35.183Z,28.38
2023-04-22T20:41:59.677Z,28.48
2023-04-22T20:44:23.109Z,29.83
2023-04-22T20:46:48.748Z,31.40
2023-04-22T20:49:12.033Z,32.65
2023-04-22T20:51:35.194Z,30.27
2023-04-22T20:54:00.095Z,30.77
2023-04-22T20:56:23.410Z,30.65
2023-04-22T20:58:46.668Z,31.98
2023-04-22T21:01:10.226Z,32.67
2023-04-22T21:03:36.905Z,32.42
2023-04-22T21:06:01.187Z,31.05
2023-04-22T21:08:26.685Z,33.65
2023-04-22T21:10:51.395Z,33.38
2023-04-22T21:13:15.939Z,33.83
2023-04-22T21:15:41.961Z,35.70
2023-04-22T21:18:09.237Z,34.95
2023-04-22T21:20:35.388Z,34.22
2023-04-22T21:22:59.704Z,34.33
2023-04-22T21:25:24.403Z,34.47
2023-04-22T21:27:48.485Z,35.97
2023-04-22T21:30:13.764Z,35.92
2023-04-22T21:32:40.524Z,35.70
2023-04-22T21:35:04.299Z,34.63
2023-04-22T21:37:29.277Z,33.47
2023-04-22T21:39:52.578Z,33.67
2023-04-22T21:42:15.992Z,34.97
2023-04-22T21:44:39.455Z,33.50
2023-04-22T21:47:02.957Z,35.30
2023-04-22T21:49:26.250Z,36.55
2023-04-22T21:51:49.566Z,38.30
2023-04-22T21:54:14.203Z,37.75
2023-04-22T21:56:37.508Z,35.40
2023-04-22T21:59:00.832Z,35.97
2023-04-22T22:01:25.639Z,37.55
2023-04-22T22:03:49.022Z,34.75
2023-04-22T22:06:14.387Z,35.13
2023-04-22T22:08:38.731Z,37.40
2023-04-22T22:11:05.890Z,38.70
2023-04-22T22:13:29.616Z,39.42
2023-04-22T22:15:55.376Z,35.58
2023-04-22T22:18:18.797Z,38.38
2023-04-22T22:20:42.072Z,36.47
2023-04-22T22:23:05.300Z,39.13
2023-04-22T22:25:31.962Z,39.70
2023-04-22T22:27:56.554Z,38.72
2023-04-22T22:30:21.644Z,37.28
2023-04-22T22:32:44.914Z,38.97
2023-04-22T22:35:09.001Z,38.50
2023-04-22T22:37:32.906Z,40.40
2023-04-22T22:39:57.278Z,41.65
2023-04-22T22:42:20.486Z,41.25
2023-04-22T22:44:45.119Z,42.15
2023-04-22T22:47:08.550Z,40.90
2023-04-22T22:49:33.122Z,43.97
2023-04-22T22:51:56.904Z,42.45
2023-04-22T22:54:22.051Z,40.45
2023-04-22T22:56:45.879Z,41.53
2023-04-22T22:59:09.766Z,47.22
2023-04-22T23:01:34.444Z,41.97
2023-04-22T23:03:57.960Z,42.42
2023-04-22T23:06:21.323Z,40.28
2023-04-22T23:08:44.719Z,40.08
2023-04-22T23:11:08.152Z,38.95
2023-04-22T23:13:31.452Z,43.30
2023-04-22T23:15:54.756Z,41.35
2023-04-22T23:18:19.672Z,39.70
2023-04-22T23:20:44.487Z,41.42
2023-04-22T23:23:08.205Z,38.20
2023-04-22T23:25:32.304Z,38.55
2023-04-22T23:27:56.052Z,38.00
2023-04-22T23:30:22.902Z,40.53
2023-04-22T23:32:49.664Z,40.15
2023-04-22T23:35:16.116Z,39.72
2023-04-22T23:37:43.506Z,40.03
2023-04-22T23:40:09.206Z,39.80
2023-04-22T23:42:32.462Z,39.75
2023-04-22T23:44:55.704Z,41.65
2023-04-22T23:47:19.045Z,39.20
2023-04-22T23:49:43.116Z,39.88
2023-04-22T23:52:08.006Z,38.42
2023-04-22T23:54:32.022Z,35.63
2023-04-22T23:56:56.228Z,41.58
2023-04-22T23:59:20.350Z,36.83
